sensor_id;sensor_type;location;lat;lon;timestamp;P1;durP1;ratioP1;P2;durP2;ratioP2
28022;SDS011;67403;50.104;8.758;2023-09-30T00:01:08;8.93;;;3.80;;
28022;SDS011;67403;50.104;8.758;2023-09-30T00:03:35;7.47;;;3.70;;
28022;SDS011;67403;50.104;8.758;2023-09-30T00:06:03;10.23;;;4.03;;
28022;SDS011;67403;50.104;8.758;2023-09-30T00:08:31;14.82;;;3.40;;
28022;SDS011;67403;50.104;8.758;2023-09-30T00:10:59;11.00;;;4.10;;
28022;SDS011;67403;50.104;8.758;2023-09-30T00:13:26;8.35;;;3.55;;
28022;SDS011;67403;50.104;8.758;2023-09-30T00:15:53;14.93;;;4.20;;
28022;SDS011;67403;50.104;8.758;2023-09-30T00:18:21;7.47;;;4.45;;
28022;SDS011;67403;50.104;8.758;2023-09-30T00:20:48;11.13;;;3.92;;
28022;SDS011;67403;50.104;8.758;2023-09-30T00:23:15;12.48;;;4.18;;
28022;SDS011;67403;50.104;8.758;2023-09-30T00:25:45;8.98;;;4.22;;
28022;SDS011;67403;50.104;8.758;2023-09-30T00:28:13;11.13;;;4.45;;
28022;SDS011;67403;50.104;8.758;2023-09-30T00:30:41;11.07;;;4.22;;
28022;SDS011;67403;50.104;8.758;2023-09-30T00:33:11;13.15;;;4.03;;
28022;SDS011;67403;50.104;8.758;2023-09-30T00:35:38;9.88;;;4.55;;
28022;SDS011;67403;50.104;8.758;2023-09-30T00:38:06;10.05;;;3.83;;
28022;SDS011;67403;50.104;8.758;2023-09-30T00:40:33;8.43;;;4.07;;
28022;SDS011;67403;50.104;8.758;2023-09-30T00:43:03;7.75;;;3.80;;
28022;SDS011;67403;50.104;8.758;2023-09-30T00:45:30;10.25;;;4.13;;
28022;SDS011;67403;50.104;8.758;2023-09-30T00:47:57;10.95;;;3.47;;
28022;SDS011;67403;50.104;8.758;2023-09-30T00:50:25;13.32;;;4.15;;
28022;SDS011;67403;50.104;8.758;2023-09-30T00:52:53;11.75;;;4.13;;
28022;SDS011;67403;50.104;8.758;2023-09-30T00:55:21;7.93;;;3.70;;
28022;SDS011;67403;50.104;8.758;2023-09-30T00:57:49;13.35;;;4.45;;
28022;SDS011;67403;50.104;8.758;2023-09-30T01:00:18;10.65;;;4.15;;
28022;SDS011;67403;50.104;8.758;2023-09-30T01:02:46;14.75;;;4.38;;
28022;SDS011;67403;50.104;8.758;2023-09-30T01:05:14;18.55;;;7.10;;
28022;SDS011;67403;50.104;8.758;2023-09-30T01:07:41;13.77;;;4.32;;
28022;SDS011;67403;50.104;8.758;2023-09-30T01:10:08;10.63;;;4.57;;
28022;SDS011;67403;50.104;8.758;2023-09-30T01:12:36;14.85;;;5.00;;
28022;SDS011;67403;50.104;8.758;2023-09-30T01:15:03;10.43;;;4.22;;
28022;SDS011;67403;50.104;8.758;2023-09-30T01:17:32;13.40;;;4.47;;
28022;SDS011;67403;50.104;8.758;2023-09-30T01:20:00;10.85;;;4.45;;
28022;SDS011;67403;50.104;8.758;2023-09-30T01:22:30;12.07;;;4.40;;
28022;SDS011;67403;50.104;8.758;2023-09-30T01:24:57;8.60;;;4.47;;
28022;SDS011;67403;50.104;8.758;2023-09-30T01:27:24;13.43;;;3.90;;
28022;SDS011;67403;50.104;8.758;2023-09-30T01:29:52;12.05;;;4.65;;
28022;SDS011;67403;50.104;8.758;2023-09-30T01:32:19;9.63;;;4.50;;
28022;SDS011;67403;50.104;8.758;2023-09-30T01:34:46;11.27;;;5.10;;
28022;SDS011;67403;50.104;8.758;2023-09-30T01:37:13;15.38;;;4.68;;
28022;SDS011;67403;50.104;8.758;2023-09-30T01:39:42;11.38;;;5.22;;
28022;SDS011;67403;50.104;8.758;2023-09-30T01:42:10;8.43;;;5.30;;
28022;SDS011;67403;50.104;8.758;2023-09-30T01:44:37;13.23;;;4.85;;
28022;SDS011;67403;50.104;8.758;2023-09-30T01:47:05;14.50;;;5.95;;
28022;SDS011;67403;50.104;8.758;2023-09-30T01:49:32;14.07;;;5.20;;
28022;SDS011;67403;50.104;8.758;2023-09-30T01:51:59;12.80;;;5.82;;
28022;SDS011;67403;50.104;8.758;2023-09-30T01:54:27;12.02;;;5.30;;
28022;SDS011;67403;50.104;8.758;2023-09-30T01:56:56;9.65;;;5.60;;
28022;SDS011;67403;50.104;8.758;2023-09-30T01:59:24;10.43;;;4.78;;
28022;SDS011;67403;50.104;8.758;2023-09-30T02:01:51;14.75;;;6.18;;
28022;SDS011;67403;50.104;8.758;2023-09-30T02:04:18;17.98;;;5.38;;
28022;SDS011;67403;50.104;8.758;2023-09-30T02:06:45;10.45;;;5.20;;
28022;SDS011;67403;50.104;8.758;2023-09-30T02:09:13;13.63;;;5.03;;
28022;SDS011;67403;50.104;8.758;2023-09-30T02:11:40;14.27;;;5.22;;
28022;SDS011;67403;50.104;8.758;2023-09-30T02:14:09;14.70;;;5.78;;
28022;SDS011;67403;50.104;8.758;2023-09-30T02:16:37;13.38;;;5.38;;
28022;SDS011;67403;50.104;8.758;2023-09-30T02:19:04;8.30;;;5.43;;
28022;SDS011;67403;50.104;8.758;2023-09-30T02:21:32;14.20;;;5.50;;
28022;SDS011;67403;50.104;8.758;2023-09-30T02:24:00;11.77;;;5.22;;
28022;SDS011;67403;50.104;8.758;2023-09-30T02:26:28;13.65;;;5.85;;
28022;SDS011;67403;50.104;8.758;2023-09-30T02:28:56;15.05;;;5.72;;
28022;SDS011;67403;50.104;8.758;2023-09-30T02:31:24;13.35;;;5.43;;
28022;SDS011;67403;50.104;8.758;2023-09-30T02:33:51;10.10;;;5.30;;
28022;SDS011;67403;50.104;8.758;2023-09-30T02:36:18;13.68;;;5.85;;
28022;SDS011;67403;50.104;8.758;2023-09-30T02:38:46;12.65;;;5.13;;
28022;SDS011;67403;50.104;8.758;2023-09-30T02:41:14;12.52;;;5.10;;
28022;SDS011;67403;50.104;8.758;2023-09-30T02:43:42;12.38;;;4.75;;
28022;SDS011;67403;50.104;8.758;2023-09-30T02:46:09;15.32;;;5.43;;
28022;SDS011;67403;50.104;8.758;2023-09-30T02:48:39;12.57;;;5.32;;
28022;SDS011;67403;50.104;8.758;2023-09-30T02:51:09;11.75;;;4.85;;
28022;SDS011;67403;50.104;8.758;2023-09-30T02:53:37;10.20;;;4.57;;
28022;SDS011;67403;50.104;8.758;2023-09-30T02:56:04;11.00;;;5.20;;
28022;SDS011;67403;50.104;8.758;2023-09-30T02:58:32;7.55;;;4.28;;
28022;SDS011;67403;50.104;8.758;2023-09-30T03:00:59;10.05;;;4.68;;
28022;SDS011;67403;50.104;8.758;2023-09-30T03:03:26;11.10;;;4.57;;
28022;SDS011;67403;50.104;8.758;2023-09-30T03:05:55;9.38;;;4.78;;
28022;SDS011;67403;50.104;8.758;2023-09-30T03:08:22;12.70;;;4.55;;
28022;SDS011;67403;50.104;8.758;2023-09-30T03:10:50;11.60;;;5.50;;
28022;SDS011;67403;50.104;8.758;2023-09-30T03:13:17;12.80;;;5.10;;
28022;SDS011;67403;50.104;8.758;2023-09-30T03:15:46;11.02;;;5.13;;
28022;SDS011;67403;50.104;8.758;2023-09-30T03:18:15;11.70;;;4.75;;
28022;SDS011;67403;50.104;8.758;2023-09-30T03:20:43;11.32;;;4.47;;
28022;SDS011;67403;50.104;8.758;2023-09-30T03:23:11;11.07;;;4.50;;
28022;SDS011;67403;50.104;8.758;2023-09-30T03:25:39;13.05;;;4.53;;
28022;SDS011;67403;50.104;8.758;2023-09-30T03:28:07;10.90;;;5.80;;
28022;SDS011;67403;50.104;8.758;2023-09-30T03:30:34;12.70;;;5.30;;
28022;SDS011;67403;50.104;8.758;2023-09-30T03:33:02;11.73;;;4.75;;
28022;SDS011;67403;50.104;8.758;2023-09-30T03:35:29;12.85;;;5.70;;
28022;SDS011;67403;50.104;8.758;2023-09-30T03:37:57;13.75;;;5.30;;
28022;SDS011;67403;50.104;8.758;2023-09-30T03:40:27;10.57;;;5.07;;
28022;SDS011;67403;50.104;8.758;2023-09-30T03:42:58;17.90;;;5.85;;
28022;SDS011;67403;50.104;8.758;2023-09-30T03:45:26;13.32;;;5.20;;
28022;SDS011;67403;50.104;8.758;2023-09-30T03:47:53;13.80;;;5.78;;
28022;SDS011;67403;50.104;8.758;2023-09-30T03:50:21;9.85;;;5.35;;
28022;SDS011;67403;50.104;8.758;2023-09-30T03:52:49;17.00;;;6.50;;
28022;SDS011;67403;50.104;8.758;2023-09-30T03:55:16;12.02;;;6.15;;
28022;SDS011;67403;50.104;8.758;2023-09-30T03:57:47;13.43;;;6.22;;
28022;SDS011;67403;50.104;8.758;2023-09-30T04:00:16;13.95;;;6.10;;
28022;SDS011;67403;50.104;8.758;2023-09-30T04:02:44;11.93;;;6.10;;
28022;SDS011;67403;50.104;8.758;2023-09-30T04:05:13;16.40;;;6.60;;
28022;SDS011;67403;50.104;8.758;2023-09-30T04:07:42;10.80;;;5.85;;
28022;SDS011;67403;50.104;8.758;2023-09-30T04:10:09;11.63;;;5.85;;
28022;SDS011;67403;50.104;8.758;2023-09-30T04:12:36;15.80;;;6.57;;
28022;SDS011;67403;50.104;8.758;2023-09-30T04:15:06;11.90;;;5.40;;
28022;SDS011;67403;50.104;8.758;2023-09-30T04:17:37;13.93;;;6.32;;
28022;SDS011;67403;50.104;8.758;2023-09-30T04:20:05;17.52;;;6.30;;
28022;SDS011;67403;50.104;8.758;2023-09-30T04:22:36;21.27;;;5.40;;
28022;SDS011;67403;50.104;8.758;2023-09-30T04:25:03;15.82;;;6.80;;
28022;SDS011;67403;50.104;8.758;2023-09-30T04:27:34;16.67;;;5.93;;
28022;SDS011;67403;50.104;8.758;2023-09-30T04:30:02;13.48;;;5.57;;
28022;SDS011;67403;50.104;8.758;2023-09-30T04:32:35;11.25;;;6.32;;
28022;SDS011;67403;50.104;8.758;2023-09-30T04:35:04;12.32;;;6.30;;
28022;SDS011;67403;50.104;8.758;2023-09-30T04:37:31;15.57;;;6.78;;
28022;SDS011;67403;50.104;8.758;2023-09-30T04:39:59;16.17;;;6.90;;
28022;SDS011;67403;50.104;8.758;2023-09-30T04:42:26;12.13;;;5.75;;
28022;SDS011;67403;50.104;8.758;2023-09-30T04:44:54;14.00;;;6.60;;
28022;SDS011;67403;50.104;8.758;2023-09-30T04:47:21;16.10;;;5.85;;
28022;SDS011;67403;50.104;8.758;2023-09-30T04:49:50;14.65;;;6.50;;
28022;SDS011;67403;50.104;8.758;2023-09-30T04:52:17;19.40;;;7.53;;
28022;SDS011;67403;50.104;8.758;2023-09-30T04:54:45;13.93;;;5.75;;
28022;SDS011;67403;50.104;8.758;2023-09-30T04:57:13;13.27;;;7.18;;
28022;SDS011;67403;50.104;8.758;2023-09-30T04:59:40;17.40;;;7.28;;
28022;SDS011;67403;50.104;8.758;2023-09-30T05:02:07;14.07;;;6.88;;
28022;SDS011;67403;50.104;8.758;2023-09-30T05:04:35;13.93;;;7.50;;
28022;SDS011;67403;50.104;8.758;2023-09-30T05:07:04;13.60;;;7.03;;
28022;SDS011;67403;50.104;8.758;2023-09-30T05:09:31;13.40;;;6.00;;
28022;SDS011;67403;50.104;8.758;2023-09-30T05:11:58;14.73;;;6.88;;
28022;SDS011;67403;50.104;8.758;2023-09-30T05:14:26;14.88;;;6.50;;
28022;SDS011;67403;50.104;8.758;2023-09-30T05:16:54;12.32;;;6.57;;
28022;SDS011;67403;50.104;8.758;2023-09-30T05:19:21;15.30;;;7.30;;
28022;SDS011;67403;50.104;8.758;2023-09-30T05:21:49;12.38;;;7.68;;
28022;SDS011;67403;50.104;8.758;2023-09-30T05:24:18;17.88;;;8.10;;
28022;SDS011;67403;50.104;8.758;2023-09-30T05:26:46;14.10;;;7.22;;
28022;SDS011;67403;50.104;8.758;2023-09-30T05:29:13;19.73;;;8.63;;
28022;SDS011;67403;50.104;8.758;2023-09-30T05:31:42;18.30;;;7.70;;
28022;SDS011;67403;50.104;8.758;2023-09-30T05:34:10;17.08;;;9.20;;
28022;SDS011;67403;50.104;8.758;2023-09-30T05:36:37;18.85;;;10.40;;
28022;SDS011;67403;50.104;8.758;2023-09-30T05:39:05;15.70;;;8.73;;
28022;SDS011;67403;50.104;8.758;2023-09-30T05:41:37;17.63;;;8.75;;
28022;SDS011;67403;50.104;8.758;2023-09-30T05:44:05;16.15;;;8.18;;
28022;SDS011;67403;50.104;8.758;2023-09-30T05:46:33;17.60;;;9.05;;
28022;SDS011;67403;50.104;8.758;2023-09-30T05:49:01;18.35;;;9.32;;
28022;SDS011;67403;50.104;8.758;2023-09-30T05:51:35;20.10;;;9.90;;
28022;SDS011;67403;50.104;8.758;2023-09-30T05:54:02;13.70;;;8.27;;
28022;SDS011;67403;50.104;8.758;2023-09-30T05:56:30;18.73;;;9.50;;
28022;SDS011;67403;50.104;8.758;2023-09-30T05:58:59;18.77;;;9.77;;
28022;SDS011;67403;50.104;8.758;2023-09-30T06:01:26;20.17;;;9.50;;
28022;SDS011;67403;50.104;8.758;2023-09-30T06:03:54;24.20;;;8.75;;
28022;SDS011;67403;50.104;8.758;2023-09-30T06:06:21;20.73;;;9.32;;
28022;SDS011;67403;50.104;8.758;2023-09-30T06:08:49;23.70;;;10.43;;
28022;SDS011;67403;50.104;8.758;2023-09-30T06:11:16;29.88;;;12.98;;
28022;SDS011;67403;50.104;8.758;2023-09-30T06:13:44;19.13;;;10.30;;
28022;SDS011;67403;50.104;8.758;2023-09-30T06:16:13;14.77;;;8.23;;
28022;SDS011;67403;50.104;8.758;2023-09-30T06:18:41;19.05;;;8.75;;
28022;SDS011;67403;50.104;8.758;2023-09-30T06:21:10;22.80;;;7.63;;
28022;SDS011;67403;50.104;8.758;2023-09-30T06:23:37;23.83;;;10.02;;
28022;SDS011;67403;50.104;8.758;2023-09-30T06:26:05;18.80;;;9.60;;
28022;SDS011;67403;50.104;8.758;2023-09-30T06:28:32;16.42;;;8.50;;
28022;SDS011;67403;50.104;8.758;2023-09-30T06:31:06;17.08;;;7.82;;
28022;SDS011;67403;50.104;8.758;2023-09-30T06:33:35;16.42;;;8.25;;
28022;SDS011;67403;50.104;8.758;2023-09-30T06:36:07;17.80;;;7.78;;
28022;SDS011;67403;50.104;8.758;2023-09-30T06:38:35;18.15;;;7.43;;
28022;SDS011;67403;50.104;8.758;2023-09-30T06:41:03;21.20;;;8.10;;
28022;SDS011;67403;50.104;8.758;2023-09-30T06:43:30;15.68;;;7.65;;
28022;SDS011;67403;50.104;8.758;2023-09-30T06:45:58;13.13;;;7.15;;
28022;SDS011;67403;50.104;8.758;2023-09-30T06:48:25;17.50;;;7.30;;
28022;SDS011;67403;50.104;8.758;2023-09-30T06:50:54;15.70;;;9.27;;
28022;SDS011;67403;50.104;8.758;2023-09-30T06:53:21;14.82;;;8.20;;
28022;SDS011;67403;50.104;8.758;2023-09-30T06:55:49;14.35;;;8.20;;
28022;SDS011;67403;50.104;8.758;2023-09-30T06:58:17;14.35;;;8.45;;
28022;SDS011;67403;50.104;8.758;2023-09-30T07:00:46;23.88;;;7.85;;
28022;SDS011;67403;50.104;8.758;2023-09-30T07:03:15;17.13;;;8.65;;
28022;SDS011;67403;50.104;8.758;2023-09-30T07:05:42;20.73;;;10.10;;
28022;SDS011;67403;50.104;8.758;2023-09-30T07:08:11;20.33;;;9.00;;
28022;SDS011;67403;50.104;8.758;2023-09-30T07:10:38;21.73;;;9.63;;
28022;SDS011;67403;50.104;8.758;2023-09-30T07:13:05;20.38;;;8.82;;
28022;SDS011;67403;50.104;8.758;2023-09-30T07:15:32;19.85;;;9.70;;
28022;SDS011;67403;50.104;8.758;2023-09-30T07:18:00;18.25;;;8.30;;
28022;SDS011;67403;50.104;8.758;2023-09-30T07:20:27;12.98;;;8.27;;
28022;SDS011;67403;50.104;8.758;2023-09-30T07:22:58;14.75;;;8.55;;
28022;SDS011;67403;50.104;8.758;2023-09-30T07:25:26;16.58;;;8.35;;
28022;SDS011;67403;50.104;8.758;2023-09-30T07:27:57;17.50;;;7.85;;
28022;SDS011;67403;50.104;8.758;2023-09-30T07:30:26;17.75;;;8.65;;
28022;SDS011;67403;50.104;8.758;2023-09-30T07:32:53;16.48;;;8.23;;
28022;SDS011;67403;50.104;8.758;2023-09-30T07:35:20;18.88;;;9.15;;
28022;SDS011;67403;50.104;8.758;2023-09-30T07:37:48;17.00;;;8.02;;
28022;SDS011;67403;50.104;8.758;2023-09-30T07:42:47;12.95;;;7.13;;
28022;SDS011;67403;50.104;8.758;2023-09-30T07:45:15;18.00;;;6.97;;
28022;SDS011;67403;50.104;8.758;2023-09-30T07:47:43;13.55;;;6.85;;
28022;SDS011;67403;50.104;8.758;2023-09-30T07:50:11;10.95;;;5.80;;
28022;SDS011;67403;50.104;8.758;2023-09-30T07:52:39;11.80;;;4.07;;
28022;SDS011;67403;50.104;8.758;2023-09-30T07:55:07;9.50;;;5.38;;
28022;SDS011;67403;50.104;8.758;2023-09-30T07:57:35;12.20;;;3.97;;
28022;SDS011;67403;50.104;8.758;2023-09-30T08:00:04;13.00;;;4.40;;
28022;SDS011;67403;50.104;8.758;2023-09-30T08:02:34;8.55;;;4.32;;
28022;SDS011;67403;50.104;8.758;2023-09-30T08:05:01;8.73;;;4.93;;
28022;SDS011;67403;50.104;8.758;2023-09-30T08:07:31;8.15;;;3.85;;
28022;SDS011;67403;50.104;8.758;2023-09-30T08:09:58;9.10;;;3.97;;
28022;SDS011;67403;50.104;8.758;2023-09-30T08:12:25;7.28;;;4.07;;
28022;SDS011;67403;50.104;8.758;2023-09-30T08:14:52;10.93;;;4.60;;
28022;SDS011;67403;50.104;8.758;2023-09-30T08:17:21;10.75;;;4.38;;
28022;SDS011;67403;50.104;8.758;2023-09-30T08:19:48;9.57;;;4.40;;
28022;SDS011;67403;50.104;8.758;2023-09-30T08:22:16;10.15;;;4.97;;
28022;SDS011;67403;50.104;8.758;2023-09-30T08:24:44;10.82;;;4.88;;
28022;SDS011;67403;50.104;8.758;2023-09-30T08:27:11;7.60;;;4.50;;
28022;SDS011;67403;50.104;8.758;2023-09-30T08:29:39;13.73;;;5.25;;
28022;SDS011;67403;50.104;8.758;2023-09-30T08:32:06;10.90;;;4.70;;
28022;SDS011;67403;50.104;8.758;2023-09-30T08:34:35;10.35;;;4.53;;
28022;SDS011;67403;50.104;8.758;2023-09-30T08:37:02;10.60;;;4.70;;
28022;SDS011;67403;50.104;8.758;2023-09-30T08:39:29;11.68;;;4.75;;
28022;SDS011;67403;50.104;8.758;2023-09-30T08:41:56;13.82;;;5.20;;
28022;SDS011;67403;50.104;8.758;2023-09-30T08:44:24;11.93;;;5.72;;
28022;SDS011;67403;50.104;8.758;2023-09-30T08:46:51;14.13;;;6.00;;
28022;SDS011;67403;50.104;8.758;2023-09-30T08:49:19;15.85;;;6.88;;
28022;SDS011;67403;50.104;8.758;2023-09-30T08:51:49;10.05;;;5.25;;
28022;SDS011;67403;50.104;8.758;2023-09-30T08:54:16;8.63;;;4.60;;
28022;SDS011;67403;50.104;8.758;2023-09-30T08:56:44;13.30;;;5.22;;
28022;SDS011;67403;50.104;8.758;2023-09-30T08:59:13;17.43;;;5.20;;
28022;SDS011;67403;50.104;8.758;2023-09-30T09:01:40;10.70;;;5.40;;
28022;SDS011;67403;50.104;8.758;2023-09-30T09:04:08;8.00;;;4.72;;
28022;SDS011;67403;50.104;8.758;2023-09-30T09:06:36;10.15;;;5.30;;
28022;SDS011;67403;50.104;8.758;2023-09-30T09:09:17;12.85;;;5.25;;
28022;SDS011;67403;50.104;8.758;2023-09-30T09:11:47;9.85;;;5.05;;
28022;SDS011;67403;50.104;8.758;2023-09-30T09:14:14;12.07;;;5.30;;
28022;SDS011;67403;50.104;8.758;2023-09-30T09:16:50;12.07;;;4.53;;
28022;SDS011;67403;50.104;8.758;2023-09-30T09:19:19;16.70;;;5.00;;
28022;SDS011;67403;50.104;8.758;2023-09-30T09:21:54;9.43;;;4.72;;
28022;SDS011;67403;50.104;8.758;2023-09-30T09:24:30;17.17;;;5.60;;
28022;SDS011;67403;50.104;8.758;2023-09-30T09:27:04;12.50;;;5.22;;
28022;SDS011;67403;50.104;8.758;2023-09-30T09:29:32;13.18;;;5.35;;
28022;SDS011;67403;50.104;8.758;2023-09-30T09:32:12;12.00;;;4.70;;
28022;SDS011;67403;50.104;8.758;2023-09-30T09:34:39;9.02;;;4.63;;
28022;SDS011;67403;50.104;8.758;2023-09-30T09:37:13;12.30;;;5.22;;
28022;SDS011;67403;50.104;8.758;2023-09-30T09:39:49;9.90;;;4.57;;
28022;SDS011;67403;50.104;8.758;2023-09-30T09:42:27;9.77;;;4.13;;
28022;SDS011;67403;50.104;8.758;2023-09-30T09:44:55;14.45;;;4.70;;
28022;SDS011;67403;50.104;8.758;2023-09-30T09:47:23;8.90;;;4.35;;
28022;SDS011;67403;50.104;8.758;2023-09-30T09:49:50;9.45;;;4.15;;
28022;SDS011;67403;50.104;8.758;2023-09-30T09:52:20;9.05;;;4.45;;
28022;SDS011;67403;50.104;8.758;2023-09-30T09:54:47;8.73;;;4.32;;
28022;SDS011;67403;50.104;8.758;2023-09-30T09:57:17;9.23;;;4.15;;
28022;SDS011;67403;50.104;8.758;2023-09-30T09:59:45;9.70;;;3.75;;
28022;SDS011;67403;50.104;8.758;2023-09-30T10:02:13;9.75;;;4.15;;
28022;SDS011;67403;50.104;8.758;2023-09-30T10:04:42;8.32;;;3.97;;
28022;SDS011;67403;50.104;8.758;2023-09-30T10:07:11;7.50;;;3.80;;
28022;SDS011;67403;50.104;8.758;2023-09-30T10:09:41;8.40;;;3.88;;
28022;SDS011;67403;50.104;8.758;2023-09-30T10:12:11;10.25;;;4.18;;
28022;SDS011;67403;50.104;8.758;2023-09-30T10:14:40;6.32;;;3.78;;
28022;SDS011;67403;50.104;8.758;2023-09-30T10:17:07;9.60;;;3.55;;
28022;SDS011;67403;50.104;8.758;2023-09-30T10:19:34;6.05;;;3.85;;
28022;SDS011;67403;50.104;8.758;2023-09-30T10:22:20;8.13;;;3.83;;
28022;SDS011;67403;50.104;8.758;2023-09-30T10:24:47;12.27;;;4.43;;
28022;SDS011;67403;50.104;8.758;2023-09-30T10:27:31;8.02;;;4.18;;
28022;SDS011;67403;50.104;8.758;2023-09-30T10:30:06;10.57;;;4.85;;
28022;SDS011;67403;50.104;8.758;2023-09-30T10:40:53;5.55;;;3.40;;
28022;SDS011;67403;50.104;8.758;2023-09-30T10:43:30;10.00;;;3.13;;
28022;SDS011;67403;50.104;8.758;2023-09-30T10:45:59;10.48;;;4.35;;
28022;SDS011;67403;50.104;8.758;2023-09-30T10:48:35;7.53;;;3.80;;
28022;SDS011;67403;50.104;8.758;2023-09-30T10:51:10;5.93;;;4.05;;
28022;SDS011;67403;50.104;8.758;2023-09-30T10:53:41;8.25;;;3.60;;
28022;SDS011;67403;50.104;8.758;2023-09-30T10:56:08;8.00;;;3.58;;
28022;SDS011;67403;50.104;8.758;2023-09-30T10:58:39;10.70;;;4.75;;
28022;SDS011;67403;50.104;8.758;2023-09-30T11:01:08;9.65;;;4.00;;
28022;SDS011;67403;50.104;8.758;2023-09-30T11:03:35;6.00;;;4.30;;
28022;SDS011;67403;50.104;8.758;2023-09-30T11:06:03;12.10;;;4.63;;
28022;SDS011;67403;50.104;8.758;2023-09-30T11:08:30;9.48;;;4.10;;
28022;SDS011;67403;50.104;8.758;2023-09-30T11:10:57;9.65;;;4.80;;
28022;SDS011;67403;50.104;8.758;2023-09-30T11:13:30;8.88;;;6.63;;
28022;SDS011;67403;50.104;8.758;2023-09-30T11:16:02;9.80;;;4.97;;
28022;SDS011;67403;50.104;8.758;2023-09-30T11:18:31;7.13;;;4.75;;
28022;SDS011;67403;50.104;8.758;2023-09-30T11:21:05;8.63;;;4.03;;
28022;SDS011;67403;50.104;8.758;2023-09-30T11:23:33;9.18;;;3.90;;
28022;SDS011;67403;50.104;8.758;2023-09-30T11:26:00;11.93;;;4.03;;
28022;SDS011;67403;50.104;8.758;2023-09-30T11:28:35;5.13;;;3.55;;
28022;SDS011;67403;50.104;8.758;2023-09-30T11:31:02;9.75;;;5.30;;
28022;SDS011;67403;50.104;8.758;2023-09-30T11:33:32;7.63;;;4.22;;
28022;SDS011;67403;50.104;8.758;2023-09-30T11:36:00;5.90;;;3.60;;
28022;SDS011;67403;50.104;8.758;2023-09-30T11:38:27;6.65;;;4.00;;
28022;SDS011;67403;50.104;8.758;2023-09-30T11:40:58;9.05;;;3.45;;
28022;SDS011;67403;50.104;8.758;2023-09-30T11:43:27;6.43;;;3.63;;
28022;SDS011;67403;50.104;8.758;2023-09-30T11:46:05;7.25;;;4.28;;
28022;SDS011;67403;50.104;8.758;2023-09-30T11:48:35;8.10;;;3.63;;
28022;SDS011;67403;50.104;8.758;2023-09-30T11:51:02;5.97;;;3.38;;
28022;SDS011;67403;50.104;8.758;2023-09-30T11:53:30;5.80;;;3.40;;
28022;SDS011;67403;50.104;8.758;2023-09-30T11:55:57;5.70;;;3.00;;
28022;SDS011;67403;50.104;8.758;2023-09-30T11:58:25;6.55;;;3.53;;
28022;SDS011;67403;50.104;8.758;2023-09-30T12:00:53;7.45;;;3.83;;
28022;SDS011;67403;50.104;8.758;2023-09-30T12:03:22;5.45;;;3.00;;
28022;SDS011;67403;50.104;8.758;2023-09-30T12:05:52;6.10;;;3.03;;
28022;SDS011;67403;50.104;8.758;2023-09-30T12:08:20;7.32;;;4.10;;
28022;SDS011;67403;50.104;8.758;2023-09-30T12:10:48;8.10;;;3.63;;
28022;SDS011;67403;50.104;8.758;2023-09-30T12:13:15;9.80;;;4.63;;
28022;SDS011;67403;50.104;8.758;2023-09-30T12:15:42;8.27;;;4.35;;
28022;SDS011;67403;50.104;8.758;2023-09-30T12:18:10;10.50;;;5.90;;
28022;SDS011;67403;50.104;8.758;2023-09-30T12:20:42;9.80;;;4.85;;
28022;SDS011;67403;50.104;8.758;2023-09-30T12:23:11;6.38;;;3.50;;
28022;SDS011;67403;50.104;8.758;2023-09-30T12:25:38;5.30;;;3.22;;
28022;SDS011;67403;50.104;8.758;2023-09-30T12:28:05;5.68;;;3.05;;
28022;SDS011;67403;50.104;8.758;2023-09-30T12:30:32;7.68;;;3.33;;
28022;SDS011;67403;50.104;8.758;2023-09-30T12:33:00;3.42;;;2.67;;
28022;SDS011;67403;50.104;8.758;2023-09-30T12:35:27;8.10;;;2.95;;
28022;SDS011;67403;50.104;8.758;2023-09-30T12:37:54;3.67;;;2.80;;
28022;SDS011;67403;50.104;8.758;2023-09-30T12:40:24;4.40;;;2.42;;
28022;SDS011;67403;50.104;8.758;2023-09-30T12:42:51;4.82;;;2.40;;
28022;SDS011;67403;50.104;8.758;2023-09-30T12:45:18;8.93;;;3.30;;
28022;SDS011;67403;50.104;8.758;2023-09-30T12:47:45;5.45;;;2.53;;
28022;SDS011;67403;50.104;8.758;2023-09-30T12:50:13;5.15;;;2.38;;
28022;SDS011;67403;50.104;8.758;2023-09-30T12:52:40;5.43;;;3.20;;
28022;SDS011;67403;50.104;8.758;2023-09-30T12:55:08;5.30;;;3.42;;
28022;SDS011;67403;50.104;8.758;2023-09-30T12:57:37;6.88;;;3.40;;
28022;SDS011;67403;50.104;8.758;2023-09-30T13:00:05;5.88;;;3.22;;
28022;SDS011;67403;50.104;8.758;2023-09-30T13:02:34;8.40;;;3.90;;
28022;SDS011;67403;50.104;8.758;2023-09-30T13:05:02;6.75;;;3.15;;
28022;SDS011;67403;50.104;8.758;2023-09-30T13:07:30;5.82;;;3.20;;
28022;SDS011;67403;50.104;8.758;2023-09-30T13:09:58;5.90;;;2.85;;
28022;SDS011;67403;50.104;8.758;2023-09-30T13:12:26;6.15;;;2.72;;
28022;SDS011;67403;50.104;8.758;2023-09-30T13:14:54;4.20;;;2.25;;
28022;SDS011;67403;50.104;8.758;2023-09-30T13:17:22;4.70;;;2.55;;
28022;SDS011;67403;50.104;8.758;2023-09-30T13:19:49;3.55;;;2.55;;
28022;SDS011;67403;50.104;8.758;2023-09-30T13:22:17;6.05;;;3.00;;
28022;SDS011;67403;50.104;8.758;2023-09-30T13:24:44;4.93;;;2.35;;
28022;SDS011;67403;50.104;8.758;2023-09-30T13:27:11;5.05;;;2.60;;
28022;SDS011;67403;50.104;8.758;2023-09-30T13:29:41;6.60;;;3.38;;
28022;SDS011;67403;50.104;8.758;2023-09-30T13:32:10;4.70;;;3.08;;
28022;SDS011;67403;50.104;8.758;2023-09-30T13:34:37;5.65;;;3.75;;
28022;SDS011;67403;50.104;8.758;2023-09-30T13:37:05;5.60;;;3.85;;
28022;SDS011;67403;50.104;8.758;2023-09-30T13:39:32;5.15;;;3.25;;
28022;SDS011;67403;50.104;8.758;2023-09-30T13:42:00;5.75;;;2.83;;
28022;SDS011;67403;50.104;8.758;2023-09-30T13:44:27;5.82;;;2.75;;
28022;SDS011;67403;50.104;8.758;2023-09-30T13:46:55;13.73;;;7.85;;
28022;SDS011;67403;50.104;8.758;2023-09-30T13:49:23;7.82;;;3.63;;
28022;SDS011;67403;50.104;8.758;2023-09-30T13:51:50;9.63;;;5.20;;
28022;SDS011;67403;50.104;8.758;2023-09-30T13:54:17;7.03;;;4.20;;
28022;SDS011;67403;50.104;8.758;2023-09-30T13:56:45;10.73;;;5.63;;
28022;SDS011;67403;50.104;8.758;2023-09-30T13:59:13;15.18;;;6.70;;
28022;SDS011;67403;50.104;8.758;2023-09-30T14:01:40;11.90;;;6.20;;
28022;SDS011;67403;50.104;8.758;2023-09-30T14:04:08;7.18;;;4.20;;
28022;SDS011;67403;50.104;8.758;2023-09-30T14:06:36;4.35;;;2.72;;
28022;SDS011;67403;50.104;8.758;2023-09-30T14:09:04;5.27;;;2.87;;
28022;SDS011;67403;50.104;8.758;2023-09-30T14:11:31;6.57;;;3.35;;
28022;SDS011;67403;50.104;8.758;2023-09-30T14:13:58;5.35;;;3.00;;
28022;SDS011;67403;50.104;8.758;2023-09-30T14:16:26;6.10;;;2.40;;
28022;SDS011;67403;50.104;8.758;2023-09-30T14:18:53;4.75;;;2.67;;
28022;SDS011;67403;50.104;8.758;2023-09-30T14:21:20;4.03;;;2.55;;
28022;SDS011;67403;50.104;8.758;2023-09-30T14:23:49;4.75;;;2.33;;
28022;SDS011;67403;50.104;8.758;2023-09-30T14:26:16;4.57;;;2.03;;
28022;SDS011;67403;50.104;8.758;2023-09-30T14:28:43;4.57;;;2.60;;
28022;SDS011;67403;50.104;8.758;2023-09-30T14:31:11;4.28;;;2.40;;
28022;SDS011;67403;50.104;8.758;2023-09-30T14:33:38;3.85;;;2.67;;
28022;SDS011;67403;50.104;8.758;2023-09-30T14:36:05;4.22;;;2.60;;
28022;SDS011;67403;50.104;8.758;2023-09-30T14:38:33;3.60;;;2.50;;
28022;SDS011;67403;50.104;8.758;2023-09-30T14:41:07;4.55;;;2.42;;
28022;SDS011;67403;50.104;8.758;2023-09-30T14:43:35;4.00;;;2.13;;
28022;SDS011;67403;50.104;8.758;2023-09-30T14:46:02;3.83;;;1.80;;
28022;SDS011;67403;50.104;8.758;2023-09-30T14:48:29;6.22;;;2.10;;
28022;SDS011;67403;50.104;8.758;2023-09-30T14:50:57;2.58;;;1.67;;
28022;SDS011;67403;50.104;8.758;2023-09-30T14:53:24;3.25;;;1.85;;
28022;SDS011;67403;50.104;8.758;2023-09-30T14:55:51;4.45;;;1.90;;
28022;SDS011;67403;50.104;8.758;2023-09-30T14:58:20;3.58;;;1.95;;